Danville, IL (61832)

11:02 PM CDT on July 25, 2016 (GMT -0500)
N Jackson | | Change Station

Elev 672 ft 40.17 °N, 87.63 °W | Updated 18 seconds ago

Scattered Clouds
Scattered Clouds
78.1 °F
Feels Like 80 °F
N
0.0
Wind Variable Wind from North
Gusts 0.0 mph

Today
High -- | Low -- °F
--% Chance of Precip.
Yesterday
High -- | Low -- °F
Precip. -- in
Pressure 30.00 in
Visibility 10.0 miles
Clouds Scattered Clouds 4700 ft
Heat Index 80 °F
Dew Point 71 °F
Humidity 78%
Rainfall 0.00 in
Snow Depth Not available.
5:42 AM 8:10 PM
Waning Gibbous, 59% visible
METAR KDNV 260355Z AUTO 01003KT 10SM SCT047 23/22 A3000 RMK AO2 T02250222
Pressure 30.00 in
Visibility 10.0 miles
Clouds Scattered Clouds 4700 ft
Heat Index 80 °F
Dew Point 71 °F
Humidity 78%
Rainfall 0.00 in
Snow Depth Not available.
5:42 AM 8:10 PM
Waning Gibbous, 59% visible
METAR KDNV 260355Z AUTO 01003KT 10SM SCT047 23/22 A3000 RMK AO2 T02250222
Record highs are possible for parts of the Northeast Monday and Tuesday, as parts of the central U.S. take a little breather from the worst of summer's dog day heat.

Expansive high pressure in the upper atmosphere will focus on parts of the East and West this week, sending heat indices well into the triple digits from the Mid-Atlantic states into the South.

10-Day Weather Forecast

Almanac

Astronomy

Jul. 25, 2016 Rise Set
Actual Time
Civil Twilight
Nautical Twilight
Astronomical Twilight
Moon
Length of Visible Light
Length of Day
Tomorrow will be .
, % of the Moon is Illuminated

Today's Extremes

State Highs State Lows

Community

WunderPhotos

Upload Photos

1,927,530 photos uploaded!

WunderBlog® & News

Nearby

Air Quality

  Air Quality AQ Index Pollutant
Not available.

Snow Depth

Station Depth Elevation

Earthquake Activity

City Distance Mag. Time & Date
Minimum magnitude displayed is 2.5.

Coastal Water Temperatures

Place Temperature

Stations

Nearby Weather Stations

Station Location Temp. Windchill Dew Point Humidity Wind Precip. Elev Updated Type
                   

Watches & Warnings

There are currently no watches in effect.